2022年9月26日 17:002022年9月27日 02:00有效
时间
星期一
17:00
>40%
星期一
18:00
>40%
星期一
19:00
>40%
星期一
20:00
>40%
星期一
21:00
>40%
星期一
22:00
>40%
星期一
23:00
星期二
00:00
星期二
01:00
代码
LIFR
LIFR
LIFR
LIFR
LIFR
LIFR
MVFR
MVFR
MVFR
天气
天空晴朗
天空晴朗
天空晴朗
天空晴朗
阵雨 雨
天空晴朗
阵雨 雨
天空晴朗
碎云
碎云
碎云
能见度
10 km+
10 km+
10 km+
10 km+
4 km
4 km
10 km+
10 km+
10 km+
天花板
1.200 ft
1.200 ft
1.200 ft
1.200 ft
800 ft
800 ft
1.200 ft
1.200 ft
1.200 ft
200°
200°
200°
200°
200°
200°
200°
200°
260°
260°
260°
260°
260°
260°
260°
260°
260°
260°
速度
9 kt
9 kt
9 kt
9 kt
9 kt
9 kt
8 kt
8 kt
8 kt
阵风
温度/星期日
19:24

原版的

TAF EDLN 261400Z 2615/2624 20009KT 9999 BKN030
TEMPO 2615/2619 RA BKN012
BECMG 2619/2621 26008KT BKN012
TEMPO 2619/2621 4000 SHRA BKN008TCU

TAF Venlo Airfield

Venlo Airfield是Venlo,荷兰中的小机场。 该机场有2条跑道: 9/27 和 11/29. 该领域的国际民航组织标志是NL-0037.

这份报告是针对2022年9月26日 16:00, 当地时间在Mönchengladbach Airport进行的。 从2022年9月26日 17:00到2022年9月27日 02:00, 当地时间有效.

预报

  • 在星期一 17:00和星期二 02:00之间

    • 风: 风来自200°方向,速度为9 kt。
    • 能见度: 10 km 或者更多
    • 乌云: 碎云在3.000 ft的高度.

  • 暂时在星期一 17:00和21:00之间

    • 天气: 雨
    • 乌云: 碎云在1.200 ft的高度.

  • 介于星期一 21:00和23:00之间

    • 风: 风来自260°方向,速度为8 kt。
    • 乌云: 碎云在1.200 ft的高度.

  • 暂时在星期一 21:00和23:00之间

    • 能见度: 4 km
    • 天气: 阵雨 雨
    • 乌云: 碎云 高耸的积云在800 ft的高度.

白天

今天,太阳从07:27升起,在19:25降落。 这适用于Venlo Airfield,世界夏令时可能有所不同。 当地时间与世界标准时间之间的时差为+2 小时。 夏令时目前正在进行中。

我们和第三方通过cookies跟踪您在我们网站上的上网行为。如果您继续,我们认为您同意我们的cookie政策。 了解更多